Time;durP1;ratioP1;P1;durP2;ratioP2;P2;SDS_P1;SDS_P2;PMS_P1;PMS_P2;Temp;Humidity;BMP_temperature;BMP_pressure;BME280_temperature;BME280_humidity;BME280_pressure;Samples;Min_cycle;Max_cycle;Signal;HPM_P1;HPM_P2
2022/01/29 00:00:52;;;;;;;5.73;3.80;;;0.70;99.90;;;;;;5073422;28;20843;-77
2022/01/29 00:03:17;;;;;;;4.70;3.00;;;0.70;99.90;;;;;;5072217;28;20216;-77
2022/01/29 00:05:43;;;;;;;7.10;3.80;;;0.70;99.90;;;;;;5073394;28;20173;-77
2022/01/29 00:08:09;;;;;;;5.50;3.90;;;0.70;99.90;;;;;;5072027;28;20213;-77
2022/01/29 00:10:35;;;;;;;5.67;2.57;;;0.70;99.90;;;;;;5073406;28;20172;-77
2022/01/29 00:13:00;;;;;;;8.83;3.50;;;0.70;99.90;;;;;;5072041;28;20204;-77
2022/01/29 00:15:27;;;;;;;5.97;3.50;;;0.70;99.90;;;;;;5071943;28;20271;-77
2022/01/29 00:17:53;;;;;;;5.70;2.93;;;;;;;;;;5072687;28;20197;-77
2022/01/29 00:20:18;;;;;;;12.07;4.37;;;0.50;99.90;;;;;;5073486;28;20420;-77
2022/01/29 00:22:44;;;;;;;7.07;3.70;;;0.80;99.90;;;;;;5073122;28;20658;-77
2022/01/29 00:25:10;;;;;;;6.00;3.90;;;;;;;;;;5073350;28;20169;-77
2022/01/29 00:27:37;;;;;;;8.53;4.00;;;0.30;99.90;;;;;;5071769;28;20193;-77
2022/01/29 00:30:08;;;;;;;9.30;3.50;;;0.40;99.90;;;;;;5073085;28;20940;-77
2022/01/29 00:32:34;;;;;;;10.23;3.70;;;;;;;;;;5073167;28;20402;-77
2022/01/29 00:35:00;;;;;;;8.43;3.63;;;0.50;99.90;;;;;;5072907;28;20274;-77
2022/01/29 00:37:26;;;;;;;6.70;3.67;;;;;;;;;;5071712;28;20458;-77
2022/01/29 00:39:52;;;;;;;6.63;3.83;;;0.30;99.90;;;;;;5072993;28;20908;-77
2022/01/29 00:42:17;;;;;;;8.77;3.47;;;0.20;99.90;;;;;;5072912;28;20204;-77
2022/01/29 00:44:44;;;;;;;7.03;2.80;;;0.10;99.90;;;;;;5072779;28;20527;-77
2022/01/29 00:47:11;;;;;;;5.60;3.40;;;;;;;;;;5071636;28;20602;-77
2022/01/29 00:49:37;;;;;;;4.97;3.27;;;;;;;;;;5071613;28;20172;-77
2022/01/29 00:52:03;;;;;;;6.03;3.87;;;0.00;99.90;;;;;;5071463;28;20408;-77
2022/01/29 00:54:29;;;;;;;6.70;3.07;;;0.10;99.90;;;;;;5072811;28;20169;-77
2022/01/29 00:56:54;;;;;;;4.83;3.43;;;-0.20;99.90;;;;;;5073150;28;20431;-77
2022/01/29 00:59:20;;;;;;;4.47;3.30;;;0.00;99.90;;;;;;5072632;28;20181;-77
2022/01/29 01:01:46;;;;;;;5.00;3.60;;;;;;;;;;5072725;28;20508;-77
2022/01/29 01:04:12;;;;;;;6.00;3.63;;;-0.10;99.90;;;;;;5072510;28;20201;-77
2022/01/29 01:06:37;;;;;;;8.00;3.70;;;-0.10;99.90;;;;;;5071381;28;20177;-77
2022/01/29 01:09:03;;;;;;;8.93;3.93;;;;;;;;;;5073023;28;20176;-77
2022/01/29 01:11:29;;;;;;;5.73;4.40;;;0.00;99.90;;;;;;5072907;28;20173;-77
2022/01/29 01:13:55;;;;;;;11.53;4.10;;;0.30;99.90;;;;;;5071130;28;20830;-77
2022/01/29 01:16:20;;;;;;;10.03;5.53;;;0.10;99.90;;;;;;5072913;28;20169;-77
2022/01/29 01:18:46;;;;;;;6.93;4.80;;;0.10;99.90;;;;;;5072646;28;20181;-77
2022/01/29 01:21:12;;;;;;;21.30;9.07;;;0.20;99.90;;;;;;5072632;28;20319;-77
2022/01/29 01:23:37;;;;;;;14.50;8.07;;;0.30;99.90;;;;;;5072570;28;20200;-77
2022/01/29 01:26:04;;;;;;;8.13;5.20;;;0.30;99.90;;;;;;5072490;28;20248;-77
2022/01/29 01:28:30;;;;;;;10.60;5.23;;;0.20;99.90;;;;;;5074254;28;20195;-77
2022/01/29 01:30:56;;;;;;;6.87;4.47;;;0.30;99.90;;;;;;5076125;28;20497;-77
2022/01/29 01:33:21;;;;;;;15.40;7.83;;;0.20;99.90;;;;;;5076207;28;20179;-77
2022/01/29 01:35:52;;;;;;;12.90;6.77;;;0.30;99.90;;;;;;5074693;28;20545;-77
2022/01/29 01:38:22;;;;;;;7.83;4.50;;;0.30;99.90;;;;;;5074894;28;20622;-77
2022/01/29 01:40:54;;;;;;;8.73;5.57;;;0.30;99.90;;;;;;5074843;28;20418;-77
2022/01/29 01:43:19;;;;;;;10.27;5.17;;;0.30;99.90;;;;;;5076012;28;20515;-77
2022/01/29 01:45:45;;;;;;;6.43;4.80;;;0.30;99.90;;;;;;5074698;28;20415;-77
2022/01/29 01:48:11;;;;;;;9.23;5.37;;;;;;;;;;5075841;28;20199;-77
2022/01/29 01:50:37;;;;;;;6.83;3.97;;;;;;;;;;5074611;28;20188;-77
2022/01/29 01:53:04;;;;;;;11.03;4.60;;;0.30;99.90;;;;;;5074554;28;20411;-77
2022/01/29 01:55:31;;;;;;;11.60;5.67;;;0.40;99.90;;;;;;5074389;28;20446;-77
2022/01/29 01:58:00;;;;;;;10.57;5.33;;;0.10;99.90;;;;;;5074637;28;20446;-77
2022/01/29 02:00:27;;;;;;;7.23;4.87;;;0.30;99.90;;;;;;5075442;28;20439;-77
2022/01/29 02:02:53;;;;;;;7.30;4.57;;;0.30;99.90;;;;;;5074353;28;20466;-76
2022/01/29 02:05:19;;;;;;;7.20;4.77;;;;;;;;;;5074465;28;20423;-77
2022/01/29 02:07:46;;;;;;;8.80;4.50;;;0.10;99.90;;;;;;5078889;28;20296;-77
2022/01/29 02:10:12;;;;;;;8.77;4.60;;;;;;;;;;5075522;28;20472;-77
2022/01/29 02:13:05;;;;;;;5.97;4.00;;;0.10;99.90;;;;;;5074355;28;20782;-77
2022/01/29 02:15:32;;;;;;;5.50;3.90;;;0.30;99.90;;;;;;5070740;28;20430;-77
2022/01/29 02:17:58;;;;;;;9.00;4.33;;;;;;;;;;5074105;28;20445;-77
2022/01/29 02:20:29;;;;;;;6.17;4.70;;;0.10;99.90;;;;;;5074113;28;20468;-77
2022/01/29 02:22:56;;;;;;;9.13;4.97;;;;;;;;;;5074672;28;20466;-77
2022/01/29 02:25:35;;;;;;;8.23;5.33;;;0.30;99.90;;;;;;5075214;28;20892;-77
2022/01/29 02:28:15;;;;;;;6.53;4.60;;;0.20;99.90;;;;;;5075295;28;20480;-77
2022/01/29 02:30:44;;;;;;;10.27;5.10;;;-0.10;99.90;;;;;;5075246;28;20791;-77
2022/01/29 02:33:14;;;;;;;5.83;4.57;;;0.20;99.90;;;;;;5075236;28;20407;-77
2022/01/29 02:35:46;;;;;;;6.77;4.40;;;0.20;99.90;;;;;;5075172;28;20191;-77
2022/01/29 02:38:14;;;;;;;7.50;4.20;;;0.20;99.90;;;;;;5073902;28;20442;-77
2022/01/29 02:40:49;;;;;;;8.17;4.43;;;;;;;;;;5073811;28;20820;-77
2022/01/29 02:43:18;;;;;;;7.53;4.33;;;0.10;99.90;;;;;;5073739;28;20482;-77
2022/01/29 02:45:44;;;;;;;7.90;4.17;;;;;;;;;;5074833;28;20928;-77
2022/01/29 02:48:10;;;;;;;7.23;4.97;;;;;;;;;;5074819;28;20423;-77
2022/01/29 02:50:36;;;;;;;6.43;4.53;;;0.20;99.90;;;;;;5074821;28;20400;-77
2022/01/29 02:53:02;;;;;;;6.67;4.20;;;0.10;99.90;;;;;;5073451;28;20423;-77
2022/01/29 02:55:29;;;;;;;9.00;4.70;;;;;;;;;;5074636;28;20545;-77
2022/01/29 02:57:55;;;;;;;7.60;4.93;;;;;;;;;;5074718;28;20580;-77
2022/01/29 03:00:22;;;;;;;12.20;5.17;;;;;;;;;;5073193;28;20426;-77
2022/01/29 03:02:48;;;;;;;8.40;4.53;;;;;;;;;;5074398;28;20546;-77
2022/01/29 03:05:14;;;;;;;7.77;5.03;;;0.00;99.90;;;;;;5073049;28;20411;-77
2022/01/29 03:07:40;;;;;;;8.37;4.77;;;;;;;;;;5074301;28;20435;-77
2022/01/29 03:10:07;;;;;;;8.40;3.87;;;0.20;99.90;;;;;;5074841;28;20259;-77
2022/01/29 03:12:33;;;;;;;6.73;3.90;;;;;;;;;;5074284;28;20513;-77
2022/01/29 03:14:59;;;;;;;4.53;3.47;;;;;;;;;;5074292;28;20465;-77
2022/01/29 03:17:25;;;;;;;9.30;4.30;;;;;;;;;;5074296;28;20441;-76
2022/01/29 03:19:53;;;;;;;6.47;3.70;;;0.30;99.90;;;;;;5074311;28;20411;-77
2022/01/29 03:22:20;;;;;;;8.47;3.83;;;;;;;;;;5074174;28;20184;-77
2022/01/29 03:24:46;;;;;;;5.57;3.57;;;;;;;;;;5074063;28;20824;-77
2022/01/29 03:27:12;;;;;;;9.53;4.00;;;;;;;;;;5074132;28;20461;-77
2022/01/29 03:29:38;;;;;;;8.47;4.30;;;;;;;;;;5072701;28;20506;-77
2022/01/29 03:32:04;;;;;;;8.33;4.47;;;0.50;99.90;;;;;;5073949;28;20412;-77
2022/01/29 03:34:30;;;;;;;8.73;5.33;;;0.30;99.90;;;;;;5073790;28;20407;-77
2022/01/29 03:36:57;;;;;;;7.70;5.03;;;;;;;;;;5073818;28;20480;-77
2022/01/29 03:39:25;;;;;;;6.63;4.53;;;0.40;99.90;;;;;;5073914;28;20650;-77
2022/01/29 03:41:51;;;;;;;8.67;4.83;;;;;;;;;;5074166;28;20409;-77
2022/01/29 03:44:17;;;;;;;7.07;4.30;;;0.60;99.90;;;;;;5073532;28;20457;-77
2022/01/29 03:46:44;;;;;;;6.33;4.07;;;;;;;;;;5073728;28;20197;-77
2022/01/29 03:49:10;;;;;;;8.57;4.20;;;;;;;;;;5072422;28;20173;-77
2022/01/29 03:51:35;;;;;;;5.70;3.80;;;0.60;99.90;;;;;;5073771;28;20790;-77
2022/01/29 03:54:01;;;;;;;5.83;3.87;;;0.60;99.90;;;;;;5073752;28;20176;-77
2022/01/29 03:56:26;;;;;;;5.70;3.67;;;0.70;99.90;;;;;;5072207;28;20539;-77
2022/01/29 03:58:52;;;;;;;5.67;3.43;;;0.60;99.90;;;;;;5073441;28;20173;-77
2022/01/29 04:01:18;;;;;;;4.97;3.33;;;0.60;99.90;;;;;;5072330;28;20483;-77
2022/01/29 04:03:43;;;;;;;5.83;3.10;;;0.60;99.90;;;;;;5072010;28;20201;-77
2022/01/29 04:06:09;;;;;;;6.27;3.30;;;0.60;99.90;;;;;;5073411;28;20260;-77
2022/01/29 04:08:40;;;;;;;5.10;3.30;;;0.90;99.90;;;;;;5073407;28;20534;-77
2022/01/29 04:11:08;;;;;;;4.83;2.87;;;0.70;99.90;;;;;;5073853;28;20157;-77
2022/01/29 04:13:33;;;;;;;4.47;2.73;;;0.70;99.90;;;;;;5072305;28;20897;-77
2022/01/29 04:15:59;;;;;;;4.70;2.57;;;0.80;99.90;;;;;;5072909;28;20511;-77
2022/01/29 04:18:25;;;;;;;4.00;2.40;;;0.90;99.90;;;;;;5072389;28;20200;-77
2022/01/29 04:20:51;;;;;;;3.63;2.43;;;;;;;;;;5073480;28;20355;-77
2022/01/29 04:23:16;;;;;;;5.27;2.73;;;1.00;99.90;;;;;;5073567;28;20188;-77
2022/01/29 04:25:42;;;;;;;3.80;2.77;;;1.10;99.90;;;;;;5073734;28;20180;-77
2022/01/29 04:28:11;;;;;;;5.30;2.67;;;;;;;;;;5074894;28;20192;-77
2022/01/29 04:30:51;;;;;;;5.33;3.07;;;1.00;99.90;;;;;;5074142;28;20178;-77
2022/01/29 04:35:45;;;;;;;5.67;3.23;;;0.80;99.90;;;;;;5072968;28;20180;-77
2022/01/29 04:38:11;;;;;;;3.57;2.37;;;0.70;99.90;;;;;;5072989;28;20793;-77
2022/01/29 04:40:37;;;;;;;5.00;2.83;;;0.90;99.90;;;;;;5072923;28;20176;-77
2022/01/29 04:43:04;;;;;;;4.83;3.07;;;1.10;99.90;;;;;;5073227;28;20657;-77
2022/01/29 04:45:30;;;;;;;6.77;3.00;;;0.90;99.90;;;;;;5072841;28;20169;-77
2022/01/29 04:47:56;;;;;;;5.57;2.93;;;;;;;;;;5072894;28;20347;-77
2022/01/29 04:50:22;;;;;;;4.17;2.87;;;1.00;99.90;;;;;;5072810;28;20834;-77
2022/01/29 04:52:48;;;;;;;4.10;2.40;;;0.90;99.90;;;;;;5071526;28;20261;-77
2022/01/29 04:55:13;;;;;;;5.17;3.47;;;0.90;99.90;;;;;;5072591;28;20189;-77
2022/01/29 04:57:41;;;;;;;4.17;2.77;;;;;;;;;;5071409;28;20200;-77
2022/01/29 05:00:10;;;;;;;2.90;2.47;;;0.90;99.90;;;;;;5072645;28;20536;-77
2022/01/29 05:02:36;;;;;;;4.93;2.47;;;0.90;99.90;;;;;;5071471;28;20547;-77
2022/01/29 05:05:02;;;;;;;3.17;2.40;;;1.00;99.90;;;;;;5075354;28;20496;-77
2022/01/29 05:07:28;;;;;;;4.77;2.30;;;1.00;99.90;;;;;;5076648;28;20204;-77
2022/01/29 05:09:54;;;;;;;2.43;1.87;;;0.90;99.90;;;;;;5076647;28;20403;-77
2022/01/29 05:12:20;;;;;;;7.03;2.20;;;1.00;99.90;;;;;;5076827;28;20173;-77
2022/01/29 05:15:05;;;;;;;3.07;2.10;;;0.90;99.90;;;;;;5076428;28;20219;-77
2022/01/29 05:28:27;;;;;;;2.77;2.10;;;;;;;;;;5076252;28;20426;-77
2022/01/29 05:30:53;;;;;;;2.33;2.07;;;1.10;99.90;;;;;;5076230;28;20407;-77
2022/01/29 05:33:19;;;;;;;2.40;2.07;;;1.20;99.90;;;;;;5076336;28;20399;-77
2022/01/29 05:35:44;;;;;;;2.70;1.80;;;1.30;99.90;;;;;;5076143;28;20611;-77
2022/01/29 05:38:10;;;;;;;2.10;1.90;;;1.30;99.90;;;;;;5074688;28;20205;-76
2022/01/29 05:40:36;;;;;;;6.53;2.30;;;1.30;99.90;;;;;;5075158;28;20634;-77
2022/01/29 05:43:01;;;;;;;3.93;2.17;;;1.30;99.90;;;;;;5074622;28;20201;-77
2022/01/29 05:45:27;;;;;;;2.97;2.00;;;1.40;99.90;;;;;;5075791;28;20172;-77
2022/01/29 05:47:53;;;;;;;2.47;1.90;;;;;;;;;;5075872;28;20200;-77
2022/01/29 05:50:19;;;;;;;2.43;1.70;;;1.60;99.90;;;;;;5076320;28;20200;-77
2022/01/29 05:52:45;;;;;;;5.23;1.70;;;;;;;;;;5076094;28;20203;-76
2022/01/29 05:55:11;;;;;;;2.90;2.13;;;;;;;;;;5075060;28;20227;-77
2022/01/29 05:57:36;;;;;;;5.50;3.17;;;1.70;99.90;;;;;;5055678;28;20570;-77
2022/01/29 06:00:04;;;;;;;3.20;1.90;;;1.60;99.90;;;;;;5054238;28;20968;-77
2022/01/29 06:02:30;;;;;;;4.73;2.67;;;;;;;;;;5054205;28;20232;-77
2022/01/29 06:04:56;;;;;;;2.20;2.00;;;;;;;;;;5055383;28;20913;-77
2022/01/29 06:07:21;;;;;;;1.70;1.57;;;2.00;99.90;;;;;;5054222;28;20208;-77
2022/01/29 06:09:48;;;;;;;2.77;1.60;;;2.40;99.90;;;;;;5055550;28;20589;-77
2022/01/29 06:12:14;;;;;;;2.50;1.80;;;2.10;99.90;;;;;;5055484;28;20174;-77
2022/01/29 06:14:40;;;;;;;4.13;1.50;;;2.10;99.90;;;;;;5054015;28;20256;-77
2022/01/29 06:17:06;;;;;;;2.03;1.60;;;2.10;99.90;;;;;;5055400;28;20556;-77
2022/01/29 06:19:31;;;;;;;1.73;1.63;;;2.20;99.90;;;;;;5056939;28;20416;-77
2022/01/29 06:21:57;;;;;;;1.83;1.70;;;2.30;99.90;;;;;;5054111;28;20181;-77
2022/01/29 06:24:23;;;;;;;2.70;1.60;;;2.30;99.90;;;;;;5053755;28;20201;-77
2022/01/29 06:26:48;;;;;;;2.63;1.70;;;2.20;99.90;;;;;;5053911;28;20198;-77
2022/01/29 06:29:14;;;;;;;1.87;1.47;;;2.30;99.90;;;;;;5055043;28;20247;-77
2022/01/29 06:31:40;;;;;;;3.90;1.53;;;2.20;99.90;;;;;;5055521;28;20177;-77
2022/01/29 06:34:05;;;;;;;1.80;1.53;;;2.20;99.90;;;;;;5054946;28;20519;-77
2022/01/29 06:36:31;;;;;;;2.60;1.80;;;2.20;99.90;;;;;;5054963;28;20173;-77
2022/01/29 06:38:57;;;;;;;1.90;1.63;;;2.20;99.90;;;;;;5055078;28;20635;-77
2022/01/29 06:41:22;;;;;;;3.63;2.00;;;2.30;99.90;;;;;;5070906;28;20695;-77
2022/01/29 06:43:48;;;;;;;3.20;2.20;;;2.30;99.90;;;;;;5075121;28;20727;-77
2022/01/29 06:46:14;;;;;;;2.43;1.63;;;2.30;99.90;;;;;;5075160;28;20177;-77
2022/01/29 06:48:39;;;;;;;3.37;2.03;;;2.30;99.90;;;;;;5059619;28;20225;-77
2022/01/29 06:51:05;;;;;;;2.10;1.53;;;2.30;99.90;;;;;;5053528;28;20173;-77
2022/01/29 06:53:31;;;;;;;2.57;2.03;;;3.80;99.90;;;;;;5054862;28;20643;-78
2022/01/29 06:55:56;;;;;;;4.27;2.60;;;2.40;99.90;;;;;;5054782;28;20671;-78
2022/01/29 06:58:22;;;;;;;1.57;1.40;;;;;;;;;;5054224;28;20567;-78
2022/01/29 07:00:48;;;;;;;1.63;1.50;;;2.30;99.90;;;;;;5054978;28;20189;-78
2022/01/29 07:03:13;;;;;;;1.60;1.50;;;2.40;99.90;;;;;;5053669;28;20665;-78
2022/01/29 07:05:39;;;;;;;2.47;1.97;;;2.40;99.90;;;;;;5074869;28;20638;-78
2022/01/29 07:08:05;;;;;;;2.60;1.60;;;;;;;;;;5075517;28;20271;-78
2022/01/29 07:10:31;;;;;;;2.17;1.50;;;2.50;99.90;;;;;;5074642;28;20542;-78
2022/01/29 07:12:57;;;;;;;2.03;1.53;;;2.60;99.90;;;;;;5074326;28;20180;-78
2022/01/29 07:15:22;;;;;;;2.57;1.63;;;2.60;99.90;;;;;;5075224;28;20579;-78
2022/01/29 07:17:48;;;;;;;1.97;1.60;;;2.60;99.90;;;;;;5069803;28;20204;-78
2022/01/29 07:20:14;;;;;;;1.43;1.13;;;2.70;99.90;;;;;;5055345;28;20174;-78
2022/01/29 07:22:39;;;;;;;2.23;1.50;;;2.70;99.90;;;;;;5055132;28;20256;-78
2022/01/29 07:25:06;;;;;;;4.03;1.10;;;3.20;99.90;;;;;;5056012;28;20170;-80
2022/01/29 07:27:32;;;;;;;1.20;1.10;;;2.90;99.90;;;;;;5057303;28;20189;-79
2022/01/29 07:29:57;;;;;;;1.50;1.23;;;2.90;99.90;;;;;;5074764;28;20549;-79
2022/01/29 07:32:23;;;;;;;1.90;1.63;;;2.90;99.90;;;;;;5078230;28;20175;-79
2022/01/29 07:34:49;;;;;;;2.00;1.30;;;2.90;99.90;;;;;;5085515;28;20209;-78
2022/01/29 07:37:14;;;;;;;1.40;1.30;;;3.00;98.50;;;;;;5088635;28;20201;-79
2022/01/29 07:39:40;;;;;;;1.77;1.60;;;3.00;98.30;;;;;;5082455;28;20173;-79
2022/01/29 07:42:06;;;;;;;1.07;0.97;;;3.20;96.50;;;;;;5077673;28;20177;-79
2022/01/29 07:44:32;;;;;;;1.83;1.40;;;3.20;96.90;;;;;;5075679;28;20203;-79
2022/01/29 07:46:57;;;;;;;2.40;1.40;;;3.30;95.30;;;;;;5075906;28;20193;-79
2022/01/29 07:49:23;;;;;;;2.17;1.90;;;3.40;95.80;;;;;;5075770;28;20172;-78
2022/01/29 07:51:49;;;;;;;2.00;1.30;;;3.50;94.70;;;;;;5075065;28;20173;-79
2022/01/29 07:54:14;;;;;;;4.90;2.60;;;3.60;94.20;;;;;;5074298;28;20180;-78
2022/01/29 07:56:40;;;;;;;3.67;2.00;;;3.60;94.20;;;;;;5074966;28;20203;-79
2022/01/29 07:59:06;;;;;;;1.50;1.40;;;3.60;93.70;;;;;;5075108;28;20208;-78
2022/01/29 08:01:32;;;;;;;1.27;1.17;;;3.70;92.60;;;;;;5073928;28;20169;-78
2022/01/29 08:03:57;;;;;;;1.17;0.93;;;3.80;92.50;;;;;;5079835;28;20201;-79
2022/01/29 08:06:29;;;;;;;1.80;1.37;;;3.80;92.10;;;;;;5077894;28;20258;-78
2022/01/29 08:08:55;;;;;;;2.63;1.87;;;3.80;92.00;;;;;;5077317;28;20157;-78
2022/01/29 08:11:21;;;;;;;1.00;0.90;;;3.80;91.10;;;;;;5072600;28;20177;-78
2022/01/29 08:13:47;;;;;;;1.13;1.07;;;3.90;91.10;;;;;;5057025;28;20182;-78
2022/01/29 08:16:14;;;;;;;1.73;1.33;;;4.00;90.50;;;;;;5052762;28;20177;-78
2022/01/29 08:18:42;;;;;;;1.63;1.53;;;4.00;90.70;;;;;;5052786;28;20301;-77
2022/01/29 08:21:08;;;;;;;1.70;1.30;;;4.00;90.70;;;;;;5053066;28;20182;-79
2022/01/29 08:23:34;;;;;;;8.87;1.53;;;4.00;90.70;;;;;;5062373;28;20206;-78
2022/01/29 08:25:59;;;;;;;0.87;0.87;;;4.00;90.10;;;;;;5054293;28;20184;-79
2022/01/29 08:28:25;;;;;;;1.50;1.30;;;4.00;89.70;;;;;;5053774;28;20201;-77
2022/01/29 08:30:51;;;;;;;2.00;1.20;;;4.00;90.10;;;;;;5060501;28;20176;-78
2022/01/29 08:33:18;;;;;;;2.23;1.70;;;4.10;90.60;;;;;;5073288;28;20188;-80
2022/01/29 08:35:47;;;;;;;3.13;1.30;;;4.00;90.10;;;;;;5056209;28;20643;-77
2022/01/29 08:38:14;;;;;;;1.17;1.07;;;4.10;90.10;;;;;;5052850;28;20217;-78
2022/01/29 08:40:40;;;;;;;1.37;1.27;;;4.10;89.50;;;;;;5056000;28;20186;-77
2022/01/29 08:43:06;;;;;;;4.03;1.77;;;4.10;89.50;;;;;;5054194;28;20228;-77
2022/01/29 08:45:32;;;;;;;2.73;1.77;;;4.10;90.00;;;;;;5056513;28;20754;-80
2022/01/29 08:47:58;;;;;;;1.93;1.67;;;4.10;89.10;;;;;;5074819;28;20208;-80
2022/01/29 08:50:23;;;;;;;5.63;3.07;;;4.10;89.30;;;;;;5074312;28;20259;-79
2022/01/29 08:52:49;;;;;;;3.80;1.37;;;4.10;89.10;;;;;;5074455;28;20597;-78
2022/01/29 08:55:15;;;;;;;1.87;1.50;;;4.20;88.90;;;;;;5074327;28;20180;-78
2022/01/29 08:57:41;;;;;;;2.43;1.67;;;4.20;88.10;;;;;;5072305;28;20685;-78
2022/01/29 09:00:08;;;;;;;1.33;1.23;;;4.20;87.90;;;;;;5073322;28;20654;-78
2022/01/29 09:02:34;;;;;;;6.07;1.70;;;4.30;86.80;;;;;;5073606;28;20225;-78
2022/01/29 09:05:00;;;;;;;1.60;0.83;;;4.30;86.50;;;;;;5073383;28;20252;-78
2022/01/29 09:07:26;;;;;;;1.47;1.10;;;4.30;86.50;;;;;;5073739;28;20693;-78
2022/01/29 09:09:53;;;;;;;1.07;0.97;;;4.30;85.60;;;;;;5055350;28;20182;-78
2022/01/29 09:12:19;;;;;;;1.73;1.30;;;4.30;85.60;;;;;;5053270;28;20231;-79
2022/01/29 09:14:45;;;;;;;1.17;1.07;;;4.30;86.60;;;;;;5053322;28;20166;-77
2022/01/29 09:17:11;;;;;;;1.10;1.00;;;4.40;86.70;;;;;;5053817;28;20193;-78
2022/01/29 09:19:36;;;;;;;0.90;0.90;;;4.40;86.60;;;;;;5055020;28;20581;-78
2022/01/29 09:22:03;;;;;;;8.40;2.20;;;4.30;86.30;;;;;;5055652;28;20208;-79
2022/01/29 09:24:29;;;;;;;2.20;1.40;;;4.30;86.50;;;;;;5055591;28;20199;-79
2022/01/29 09:26:54;;;;;;;3.03;2.73;;;4.30;87.10;;;;;;5075081;28;20225;-78
2022/01/29 09:29:20;;;;;;;1.97;1.70;;;4.30;86.70;;;;;;5088715;28;20188;-80
2022/01/29 09:31:46;;;;;;;1.50;1.40;;;4.30;86.20;;;;;;5087659;28;20619;-79
2022/01/29 09:34:11;;;;;;;1.47;1.37;;;4.30;86.40;;;;;;5074370;28;20265;-78
2022/01/29 09:36:37;;;;;;;1.40;1.30;;;4.30;85.90;;;;;;5074347;28;20631;-79
2022/01/29 09:39:03;;;;;;;1.50;1.40;;;4.30;85.00;;;;;;5074934;28;20188;-79
2022/01/29 09:41:29;;;;;;;2.00;1.90;;;4.40;86.00;;;;;;5075980;28;20184;-79
2022/01/29 09:43:56;;;;;;;1.77;0.97;;;4.30;85.10;;;;;;5062033;28;20203;-78
2022/01/29 09:46:29;;;;;;;3.27;2.07;;;4.30;85.70;;;;;;5060590;28;20176;-78
2022/01/29 09:48:55;;;;;;;5.17;2.03;;;4.30;86.40;;;;;;5065012;28;20182;-78
2022/01/29 09:51:21;;;;;;;10.40;3.93;;;4.30;85.30;;;;;;5075393;28;20174;-80
2022/01/29 09:53:46;;;;;;;3.70;1.73;;;4.20;86.70;;;;;;5062384;28;20216;-79
2022/01/29 09:56:13;;;;;;;47.83;16.43;;;4.30;86.30;;;;;;5064756;28;20630;-78
2022/01/29 09:58:41;;;;;;;2.57;1.43;;;4.20;86.70;;;;;;5062658;28;20290;-79
2022/01/29 10:01:07;;;;;;;3.83;2.10;;;4.20;86.60;;;;;;5060170;28;20191;-77
2022/01/29 10:03:33;;;;;;;1.63;1.00;;;4.10;86.00;;;;;;5060816;28;20250;-78
2022/01/29 10:06:00;;;;;;;9.47;4.20;;;4.20;86.40;;;;;;5076014;28;20637;-79
2022/01/29 10:08:27;;;;;;;2.17;1.40;;;4.20;86.50;;;;;;5071000;28;20200;-79
2022/01/29 10:10:55;;;;;;;3.57;2.10;;;4.20;87.20;;;;;;5060860;28;20184;-79
2022/01/29 10:13:24;;;;;;;1.60;1.47;;;4.20;87.50;;;;;;5058394;28;20180;-79
2022/01/29 10:15:51;;;;;;;3.63;1.10;;;4.20;86.90;;;;;;5062735;28;20186;-77
2022/01/29 10:18:23;;;;;;;7.53;3.03;;;4.20;87.10;;;;;;5079019;28;20194;-77
2022/01/29 10:20:50;;;;;;;10.27;4.23;;;4.20;86.00;;;;;;5077972;28;20713;-78
2022/01/29 10:23:16;;;;;;;4.27;1.87;;;4.20;86.40;;;;;;5076908;28;20206;-78
2022/01/29 10:25:44;;;;;;;5.37;2.30;;;4.30;86.60;;;;;;5071622;28;20180;-78
2022/01/29 10:28:18;;;;;;;18.33;5.90;;;4.30;86.70;;;;;;5069115;28;20198;-78
2022/01/29 10:30:51;;;;;;;1.90;1.80;;;4.30;84.80;;;;;;5078399;28;20169;-78
2022/01/29 10:33:27;;;;;;;3.73;2.67;;;4.40;85.90;;;;;;5078975;28;20171;-77
2022/01/29 10:35:58;;;;;;;1.30;1.07;;;4.40;85.20;;;;;;5075989;28;20183;-77
2022/01/29 10:38:29;;;;;;;2.13;1.00;;;4.40;84.30;;;;;;5074896;28;20607;-79
2022/01/29 10:41:24;;;;;;;1.00;0.90;;;4.40;84.50;;;;;;5067670;28;20176;-78
2022/01/29 10:43:58;;;;;;;1.80;1.17;;;4.40;84.30;;;;;;5058294;28;20227;-79
2022/01/29 10:46:29;;;;;;;2.60;1.00;;;4.40;84.50;;;;;;5056148;28;20634;-78
2022/01/29 10:48:57;;;;;;;1.83;1.50;;;4.30;84.10;;;;;;5057133;28;20193;-77
2022/01/29 10:51:25;;;;;;;1.80;1.40;;;4.40;84.20;;;;;;5055989;28;20739;-78
2022/01/29 10:53:53;;;;;;;5.07;1.50;;;4.30;85.00;;;;;;5056770;28;20243;-77
2022/01/29 10:56:22;;;;;;;2.23;1.20;;;4.40;84.90;;;;;;5057202;28;20193;-78
2022/01/29 10:58:50;;;;;;;2.20;1.60;;;4.40;84.10;;;;;;5057162;28;20173;-79
2022/01/29 11:01:17;;;;;;;2.13;0.80;;;4.40;84.90;;;;;;5056500;28;20619;-76
2022/01/29 11:03:44;;;;;;;2.43;1.10;;;4.30;84.00;;;;;;5055436;28;20202;-77
2022/01/29 11:06:12;;;;;;;1.40;1.30;;;4.40;84.70;;;;;;5055017;28;20200;-77
2022/01/29 11:08:39;;;;;;;2.40;1.20;;;4.50;85.10;;;;;;5056297;28;20214;-78
2022/01/29 11:11:05;;;;;;;1.93;1.30;;;4.50;84.20;;;;;;5059743;28;20173;-78
2022/01/29 11:13:32;;;;;;;8.67;2.00;;;4.50;84.80;;;;;;5081184;28;20584;-79
2022/01/29 11:15:58;;;;;;;4.07;1.73;;;4.60;85.00;;;;;;5076161;28;20183;-79
2022/01/29 11:18:27;;;;;;;2.50;1.87;;;4.70;83.10;;;;;;5082979;28;20288;-79
2022/01/29 11:20:55;;;;;;;2.13;1.27;;;4.70;85.00;;;;;;5082563;28;20544;-79
2022/01/29 11:23:22;;;;;;;2.47;1.20;;;4.80;84.30;;;;;;5083897;28;20201;-79
2022/01/29 11:25:53;;;;;;;1.70;1.50;;;4.80;84.40;;;;;;5066992;28;20290;-78
2022/01/29 11:28:20;;;;;;;2.07;1.50;;;4.90;84.20;;;;;;5076612;28;20206;-78
2022/01/29 11:31:07;;;;;;;1.57;1.30;;;4.90;83.20;;;;;;5075153;28;20183;-78
2022/01/29 11:33:33;;;;;;;2.03;1.70;;;4.90;82.80;;;;;;5069467;28;20594;-79
2022/01/29 11:35:59;;;;;;;2.77;2.00;;;4.90;83.30;;;;;;5059360;28;20187;-80
2022/01/29 11:38:32;;;;;;;2.23;1.80;;;5.40;83.90;;;;;;5081846;28;20707;-78
2022/01/29 11:41:01;;;;;;;3.10;2.03;;;6.50;83.40;;;;;;5079271;28;20187;-79
2022/01/29 11:43:34;;;;;;;32.50;13.97;;;7.40;80.40;;;;;;5078171;28;20624;-79
2022/01/29 11:46:30;;;;;;;3.90;2.40;;;7.70;77.30;;;;;;5078651;28;20550;-79
2022/01/29 11:48:56;;;;;;;2.60;2.07;;;7.80;75.40;;;;;;5066402;28;20174;-79
2022/01/29 11:51:52;;;;;;;2.27;2.00;;;7.80;73.80;;;;;;5059373;28;20174;-80
2022/01/29 11:54:26;;;;;;;2.40;2.17;;;7.80;74.60;;;;;;5059007;28;20221;-79
2022/01/29 11:57:07;;;;;;;2.00;1.60;;;7.70;71.80;;;;;;5057637;28;20197;-78
2022/01/29 11:59:34;;;;;;;2.03;1.83;;;7.70;73.10;;;;;;5071545;28;20224;-79
2022/01/29 12:02:27;;;;;;;1.60;1.40;;;8.00;72.90;;;;;;5058864;28;20186;-80
2022/01/29 12:04:58;;;;;;;6.23;3.37;;;8.10;70.20;;;;;;5060557;28;20177;-80
2022/01/29 12:07:35;;;;;;;3.03;2.03;;;8.20;70.40;;;;;;5060674;28;20190;-79
2022/01/29 12:10:05;;;;;;;2.93;1.60;;;8.20;70.50;;;;;;5055141;28;20181;-79
2022/01/29 12:12:39;;;;;;;1.90;1.30;;;8.70;70.50;;;;;;5073726;28;20225;-80
2022/01/29 12:15:11;;;;;;;1.70;1.50;;;8.70;68.70;;;;;;5058386;28;20165;-80
2022/01/29 12:17:49;;;;;;;2.03;1.70;;;8.80;67.00;;;;;;5059094;28;20534;-80
2022/01/29 12:20:17;;;;;;;2.20;2.00;;;8.40;67.10;;;;;;5061522;28;20569;-79
2022/01/29 12:22:44;;;;;;;2.67;2.10;;;8.50;68.60;;;;;;5057989;28;20170;-80
2022/01/29 12:25:13;;;;;;;2.30;2.10;;;8.70;67.90;;;;;;5057029;28;20231;-80
2022/01/29 12:27:49;;;;;;;2.67;2.23;;;9.40;67.70;;;;;;5062466;28;20191;-80
2022/01/29 12:30:21;;;;;;;2.57;1.80;;;9.60;64.70;;;;;;5059016;28;20173;-80
2022/01/29 12:33:07;;;;;;;1.83;1.53;;;9.50;63.80;;;;;;5065533;28;20181;-80
2022/01/29 12:35:58;;;;;;;2.60;1.97;;;9.90;64.30;;;;;;5078938;28;20527;-79
2022/01/29 12:38:27;;;;;;;3.47;1.93;;;9.70;61.70;;;;;;5077252;28;20279;-81
2022/01/29 12:41:03;;;;;;;3.20;2.10;;;9.50;60.80;;;;;;5072465;28;20621;-80
2022/01/29 12:43:53;;;;;;;3.10;2.17;;;9.80;62.50;;;;;;5058911;28;20181;-79
2022/01/29 12:46:21;;;;;;;3.63;2.40;;;9.90;62.30;;;;;;5068321;28;20166;-79
2022/01/29 12:49:07;;;;;;;3.07;2.17;;;9.40;60.10;;;;;;5076818;28;20252;-80
2022/01/29 12:51:35;;;;;;;3.37;2.33;;;9.60;60.80;;;;;;5070107;28;20172;-81
2022/01/29 12:54:03;;;;;;;2.97;2.30;;;9.50;60.50;;;;;;5090146;28;20248;-79
2022/01/29 12:56:34;;;;;;;12.17;9.10;;;9.80;59.00;;;;;;5076637;28;20208;-79
2022/01/29 12:59:02;;;;;;;4.10;3.00;;;10.00;58.40;;;;;;5075575;28;20184;-77
2022/01/29 13:01:27;;;;;;;3.30;2.20;;;9.90;58.30;;;;;;5076601;28;20180;-80
2022/01/29 13:04:11;;;;;;;2.70;1.90;;;9.30;60.30;;;;;;5074340;28;20201;-80
2022/01/29 13:06:37;;;;;;;2.27;2.00;;;9.60;59.40;;;;;;5064544;28;20203;-80
2022/01/29 13:09:14;;;;;;;3.03;2.20;;;10.00;57.60;;;;;;5056531;28;20244;-80
2022/01/29 13:11:40;;;;;;;6.17;3.70;;;10.50;57.90;;;;;;5071840;28;20331;-79
2022/01/29 13:14:19;;;;;;;3.27;2.40;;;10.50;56.00;;;;;;5055868;28;20218;-80
2022/01/29 13:16:47;;;;;;;2.50;2.07;;;10.50;56.00;;;;;;5056574;28;20600;-79
2022/01/29 13:19:15;;;;;;;3.70;2.40;;;10.10;55.90;;;;;;5057123;28;20227;-80
2022/01/29 13:21:41;;;;;;;5.00;3.60;;;9.70;57.10;;;;;;5056713;28;20182;-79
2022/01/29 13:24:30;;;;;;;4.73;2.80;;;9.40;56.70;;;;;;5056920;28;20647;-80
2022/01/29 13:27:09;;;;;;;3.60;2.00;;;8.80;57.10;;;;;;5070178;28;20216;-79